Time;durP1;ratioP1;P1;durP2;ratioP2;P2;SDS_P1;SDS_P2;PMS_P1;PMS_P2;Temp;Humidity;BMP_temperature;BMP_pressure;BME280_temperature;BME280_humidity;BME280_pressure;Samples;Min_cycle;Max_cycle;Signal;HPM_P1;HPM_P2
2021/12/30 00:00:11;;;;;;;;;;;13.10;99.90;;;;;;5006533;28;19929;-70
2021/12/30 00:02:38;;;;;;;;;;;13.10;99.90;;;;;;5010157;28;20395;-70
2021/12/30 00:05:05;;;;;;;;;;;13.10;99.90;;;;;;5012195;28;20028;-70
2021/12/30 00:07:33;;;;;;;;;;;13.10;99.90;;;;;;5009029;28;19979;-70
2021/12/30 00:10:00;;;;;;;;;;;13.10;99.90;;;;;;5007656;28;19930;-70
2021/12/30 00:12:27;;;;;;;;;;;13.10;99.90;;;;;;5008529;28;20280;-70
2021/12/30 00:14:54;;;;;;;;;;;13.10;99.90;;;;;;5008834;28;19932;-70
2021/12/30 00:17:20;;;;;;;;;;;13.20;99.90;;;;;;5008269;28;19932;-70
2021/12/30 00:19:47;;;;;;;;;;;13.20;99.90;;;;;;5012928;28;20013;-69
2021/12/30 00:22:14;;;;;;;;;;;13.20;99.90;;;;;;5010727;28;19926;-70
2021/12/30 00:24:42;;;;;;;;;;;13.20;99.90;;;;;;5011193;28;19933;-69
2021/12/30 00:27:09;;;;;;;;;;;13.20;99.90;;;;;;5006620;28;19925;-70
2021/12/30 00:29:36;;;;;;;;;;;13.20;99.90;;;;;;5011428;28;20287;-69
2021/12/30 00:32:04;;;;;;;;;;;13.20;99.90;;;;;;5003875;28;19926;-71
2021/12/30 00:34:30;;;;;;;;;;;13.20;99.90;;;;;;5007856;28;19980;-71
2021/12/30 00:36:57;;;;;;;;;;;13.20;99.90;;;;;;5009868;28;19926;-71
2021/12/30 00:39:24;;;;;;;;;;;13.30;99.90;;;;;;5011373;28;19980;-71
2021/12/30 00:41:52;;;;;;;;;;;13.30;99.90;;;;;;5008604;28;19926;-71
2021/12/30 00:44:19;;;;;;;;;;;13.40;99.90;;;;;;5008203;28;20389;-71
2021/12/30 00:46:45;;;;;;;;;;;13.40;99.90;;;;;;5007274;28;19948;-71
2021/12/30 00:49:13;;;;;;;;;;;13.40;99.90;;;;;;5009813;28;20001;-70
2021/12/30 00:51:39;;;;;;;;;;;13.40;99.90;;;;;;5009745;28;19933;-70
2021/12/30 00:54:06;;;;;;;;;;;13.40;99.90;;;;;;5012253;28;19925;-69
2021/12/30 00:56:35;;;;;;;;;;;13.50;99.90;;;;;;5010099;28;19929;-71
2021/12/30 00:59:03;;;;;;;;;;;13.50;99.90;;;;;;5007112;28;19925;-71
2021/12/30 01:01:30;;;;;;;;;;;13.50;99.90;;;;;;5006409;28;19932;-71
2021/12/30 01:03:57;;;;;;;;;;;13.50;99.90;;;;;;5008586;28;20000;-71
2021/12/30 01:06:25;;;;;;;;;;;13.60;99.90;;;;;;5010585;28;19929;-71
2021/12/30 01:08:52;;;;;;;;;;;13.60;99.90;;;;;;5009578;28;19926;-72
2021/12/30 01:11:20;;;;;;;;;;;13.60;99.90;;;;;;5008867;28;19943;-71
2021/12/30 01:13:55;;;;;;;;;;;13.60;99.90;;;;;;5009360;28;19941;-71
2021/12/30 01:16:24;;;;;;;;;;;13.60;99.90;;;;;;5010747;28;19937;-71
2021/12/30 01:19:00;;;;;;;;;;;13.50;99.90;;;;;;5010515;28;20052;-70
2021/12/30 01:21:27;;;;;;;;;;;13.50;99.90;;;;;;5010276;28;19929;-71
2021/12/30 01:23:54;;;;;;;;;;;13.50;99.90;;;;;;5010683;28;20361;-70
2021/12/30 01:26:22;;;;;;;;;;;13.50;99.90;;;;;;5009701;28;19940;-71
2021/12/30 01:28:50;;;;;;;;;;;13.50;99.90;;;;;;5008092;28;19926;-70
2021/12/30 01:31:17;;;;;;;;;;;13.50;99.90;;;;;;5009408;28;20380;-71
2021/12/30 01:33:47;;;;;;;;;;;13.50;99.90;;;;;;5011679;28;19925;-71
2021/12/30 01:36:14;;;;;;;;;;;13.50;99.90;;;;;;5007033;28;19926;-72
2021/12/30 01:38:41;;;;;;;;;;;13.40;99.90;;;;;;5010386;28;20012;-71
2021/12/30 01:41:09;;;;;;;;;;;13.40;99.90;;;;;;5010573;28;20396;-71
2021/12/30 01:43:36;;;;;;;;;;;13.40;99.90;;;;;;5009798;28;19932;-72
2021/12/30 01:46:03;;;;;;;;;;;13.50;99.90;;;;;;5010539;28;20016;-72
2021/12/30 01:48:30;;;;;;;;;;;13.40;99.90;;;;;;5008248;28;20412;-71
2021/12/30 01:50:58;;;;;;;;;;;13.40;99.90;;;;;;5008881;28;19926;-71
2021/12/30 01:53:25;;;;;;;;;;;13.40;99.90;;;;;;5008132;28;19926;-71
2021/12/30 01:55:52;;;;;;;;;;;13.40;99.90;;;;;;5009168;28;20403;-71
2021/12/30 01:58:19;;;;;;;;;;;13.40;99.90;;;;;;5007773;28;20388;-71
2021/12/30 02:00:46;;;;;;;;;;;13.40;99.90;;;;;;5009726;28;20307;-71
2021/12/30 02:03:13;;;;;;;;;;;13.40;99.90;;;;;;5009007;28;19930;-73
2021/12/30 02:05:41;;;;;;;;;;;13.40;99.90;;;;;;5003559;28;19925;-71
2021/12/30 02:08:12;;;;;;;;;;;13.40;99.90;;;;;;5006904;28;20016;-71
2021/12/30 02:10:40;;;;;;;;;;;13.50;99.90;;;;;;5009974;28;20416;-71
2021/12/30 02:13:07;;;;;;;;;;;13.50;99.90;;;;;;5006715;28;19933;-71
2021/12/30 02:15:33;;;;;;;;;;;13.50;99.90;;;;;;5008670;28;20024;-71
2021/12/30 02:18:01;;;;;;;;;;;13.50;99.90;;;;;;5006579;28;20307;-70
2021/12/30 02:20:41;;;;;;;;;;;13.50;99.90;;;;;;5010493;28;19932;-71
2021/12/30 02:23:08;;;;;;;;;;;13.50;99.90;;;;;;5008592;28;19988;-71
2021/12/30 02:25:35;;;;;;;;;;;13.50;99.90;;;;;;5007618;28;19934;-70
2021/12/30 02:28:05;;;;;;;;;;;13.50;99.90;;;;;;5005106;28;20333;-71
2021/12/30 02:30:32;;;;;;;;;;;13.50;99.90;;;;;;5010077;28;20292;-72
2021/12/30 02:33:01;;;;;;;;;;;13.60;99.90;;;;;;5005609;28;20389;-71
2021/12/30 02:35:28;;;;;;;;;;;13.50;99.90;;;;;;5012223;28;20019;-71
2021/12/30 02:37:56;;;;;;;;;;;13.60;99.90;;;;;;5011947;28;19926;-71
2021/12/30 02:40:26;;;;;;;;;;;13.60;99.90;;;;;;5011851;28;19929;-71
2021/12/30 02:42:53;;;;;;;;;;;13.60;99.90;;;;;;5012062;28;20284;-71
2021/12/30 02:45:19;;;;;;;;;;;13.60;99.90;;;;;;5011959;28;19925;-71
2021/12/30 02:47:46;;;;;;;;;;;13.70;99.90;;;;;;5013782;28;20585;-71
2021/12/30 02:50:13;;;;;;;;;;;13.70;99.90;;;;;;5013952;28;20016;-71
2021/12/30 02:52:40;;;;;;;;;;;13.80;99.90;;;;;;5011951;28;20384;-71
2021/12/30 02:55:08;;;;;;;;;;;13.80;99.90;;;;;;5009730;28;19931;-71
2021/12/30 02:57:35;;;;;;;;;;;13.80;99.90;;;;;;5010498;28;19925;-71
2021/12/30 03:00:01;;;;;;;;;;;13.80;99.90;;;;;;5013238;28;19925;-71
2021/12/30 03:02:28;;;;;;;;;;;13.80;99.90;;;;;;5011561;28;19937;-71
2021/12/30 03:04:57;;;;;;;;;;;13.80;99.90;;;;;;5011476;28;19925;-71
2021/12/30 03:07:23;;;;;;;;;;;13.80;99.90;;;;;;5010241;28;19940;-71
2021/12/30 03:09:50;;;;;;;;;;;13.90;99.90;;;;;;5012402;28;20016;-71
2021/12/30 03:12:19;;;;;;;;;;;13.90;99.90;;;;;;5012536;28;19925;-71
2021/12/30 03:14:46;;;;;;;;;;;14.00;99.90;;;;;;5012431;28;19939;-71
2021/12/30 03:17:13;;;;;;;;;;;14.00;99.90;;;;;;5012251;28;19976;-71
2021/12/30 03:19:40;;;;;;;;;;;14.10;99.90;;;;;;5006358;28;19925;-70
2021/12/30 03:22:06;;;;;;;;;;;14.10;99.90;;;;;;5006895;28;19933;-71
2021/12/30 03:24:35;;;;;;;;;;;14.10;99.90;;;;;;5012300;28;19933;-71
2021/12/30 03:27:02;;;;;;;;;;;14.10;99.90;;;;;;5010708;28;20404;-71
2021/12/30 03:29:30;;;;;;;;;;;14.10;99.90;;;;;;5012591;28;19933;-71
2021/12/30 03:31:57;;;;;;;;;;;14.10;99.90;;;;;;5011114;28;20299;-71
2021/12/30 03:34:24;;;;;;;;;;;14.20;99.90;;;;;;5010523;28;20358;-71
2021/12/30 03:36:50;;;;;;;;;;;14.20;99.90;;;;;;5009808;28;20307;-71
2021/12/30 03:39:17;;;;;;;;;;;14.10;99.90;;;;;;5013352;28;20015;-71
2021/12/30 03:41:43;;;;;;;;;;;14.10;99.90;;;;;;5006686;28;19957;-71
2021/12/30 03:44:10;;;;;;;;;;;14.20;99.90;;;;;;5010787;28;19926;-70
2021/12/30 03:46:38;;;;;;;;;;;14.20;99.90;;;;;;5010252;28;20020;-70
2021/12/30 03:49:06;;;;;;;;;;;14.20;99.90;;;;;;5013449;28;19925;-71
2021/12/30 03:51:39;;;;;;;;;;;14.20;99.90;;;;;;5010910;28;20084;-71
2021/12/30 03:54:07;;;;;;;;;;;14.10;99.90;;;;;;5014139;28;19948;-70
2021/12/30 03:56:35;;;;;;;;;;;14.20;99.90;;;;;;5009618;28;19938;-71
2021/12/30 03:59:03;;;;;;;;;;;14.20;99.90;;;;;;5013215;28;19956;-71
2021/12/30 04:01:30;;;;;;;;;;;14.10;99.90;;;;;;5009225;28;19939;-69
2021/12/30 04:03:58;;;;;;;;;;;14.10;99.90;;;;;;5012617;28;20281;-71
2021/12/30 04:06:27;;;;;;;;;;;14.10;99.90;;;;;;5009436;28;19926;-71
2021/12/30 04:08:54;;;;;;;;;;;14.10;99.90;;;;;;5011864;28;20291;-71
2021/12/30 04:11:22;;;;;;;;;;;14.10;99.90;;;;;;5010867;28;19931;-71
2021/12/30 04:13:49;;;;;;;;;;;14.10;99.90;;;;;;5010746;28;20495;-71
2021/12/30 04:16:16;;;;;;;;;;;14.10;99.90;;;;;;5008484;28;19925;-70
2021/12/30 04:18:43;;;;;;;;;;;14.10;99.90;;;;;;5012216;28;19925;-70
2021/12/30 04:21:10;;;;;;;;;;;14.10;99.90;;;;;;5009989;28;19972;-71
2021/12/30 04:23:37;;;;;;;;;;;14.10;99.90;;;;;;5009303;28;19952;-71
2021/12/30 04:26:04;;;;;;;;;;;14.10;99.90;;;;;;5011957;28;20032;-72
2021/12/30 04:28:30;;;;;;;;;;;14.10;99.90;;;;;;5008127;28;19926;-71
2021/12/30 04:30:57;;;;;;;;;;;14.10;99.90;;;;;;5010801;28;19926;-71
2021/12/30 04:33:24;;;;;;;;;;;14.10;99.90;;;;;;5010878;28;19988;-71
2021/12/30 04:35:56;;;;;;;;;;;14.10;99.90;;;;;;5011870;28;19925;-71
2021/12/30 04:38:24;;;;;;;;;;;14.00;99.90;;;;;;5009035;28;19933;-72
2021/12/30 04:40:51;;;;;;;;;;;14.00;99.90;;;;;;5010912;28;19957;-71
2021/12/30 04:43:17;;;;;;;;;;;14.00;99.90;;;;;;5009443;28;20389;-71
2021/12/30 04:45:46;;;;;;;;;;;14.00;99.90;;;;;;5008769;28;19926;-70
2021/12/30 04:48:13;;;;;;;;;;;14.00;99.90;;;;;;5009056;28;19964;-72
2021/12/30 04:50:40;;;;;;;;;;;14.00;99.90;;;;;;5006773;28;20334;-72
2021/12/30 04:53:06;;;;;;;;;;;14.00;99.90;;;;;;5007412;28;20299;-72
2021/12/30 04:55:34;;;;;;;;;;;14.00;99.90;;;;;;5009730;28;19925;-72
2021/12/30 04:58:01;;;;;;;;;;;14.00;99.90;;;;;;5009097;28;19926;-71
2021/12/30 05:00:28;;;;;;;;;;;14.00;99.90;;;;;;5010692;28;19926;-71
2021/12/30 05:03:08;;;;;;;;;;;14.00;99.90;;;;;;5007239;28;19957;-71
2021/12/30 05:05:36;;;;;;;;;;;14.00;99.90;;;;;;5010125;28;19925;-71
2021/12/30 05:08:03;;;;;;;;;;;14.00;99.90;;;;;;5009776;28;20345;-71
2021/12/30 05:10:30;;;;;;;;;;;14.00;99.90;;;;;;5012047;28;20016;-70
2021/12/30 05:12:58;;;;;;;;;;;14.10;99.90;;;;;;5010341;28;19955;-71
2021/12/30 05:15:25;;;;;;;;;;;14.10;99.90;;;;;;5011119;28;20304;-70
2021/12/30 05:17:51;;;;;;;;;;;14.10;99.90;;;;;;5008860;28;19932;-70
2021/12/30 05:20:18;;;;;;;;;;;14.10;99.90;;;;;;5008163;28;19980;-71
2021/12/30 05:22:45;;;;;;;;;;;14.10;99.90;;;;;;5008524;28;19925;-71
2021/12/30 05:25:12;;;;;;;;;;;14.10;99.90;;;;;;5010584;28;20024;-71
2021/12/30 05:27:39;;;;;;;;;;;14.20;99.90;;;;;;5006725;28;20016;-71
2021/12/30 05:30:09;;;;;;;;;;;14.10;99.90;;;;;;5011046;28;19925;-71
2021/12/30 05:32:35;;;;;;;;;;;14.10;99.90;;;;;;5008440;28;19929;-71
2021/12/30 05:35:02;;;;;;;;;;;14.20;99.90;;;;;;5010772;28;19932;-71
2021/12/30 05:37:29;;;;;;;;;;;14.20;99.90;;;;;;5008692;28;20399;-71
2021/12/30 05:39:55;;;;;;;;;;;14.20;99.90;;;;;;5010957;28;20396;-71
2021/12/30 05:42:23;;;;;;;;;;;14.20;99.90;;;;;;5003903;28;19979;-72
2021/12/30 05:44:50;;;;;;;;;;;14.20;99.90;;;;;;5010648;28;20327;-71
2021/12/30 05:47:18;;;;;;;;;;;14.20;99.90;;;;;;5009240;28;19932;-71
2021/12/30 05:49:45;;;;;;;;;;;14.20;99.90;;;;;;5008647;28;19925;-71
2021/12/30 05:52:13;;;;;;;;;;;14.10;99.90;;;;;;5003752;28;19932;-71
2021/12/30 05:54:40;;;;;;;;;;;14.10;99.90;;;;;;5001620;28;20004;-71
2021/12/30 05:57:07;;;;;;;;;;;14.20;99.90;;;;;;5002377;28;20008;-71
2021/12/30 05:59:33;;;;;;;;;;;14.20;99.90;;;;;;5010811;28;19931;-71
2021/12/30 06:02:00;;;;;;;;;;;14.10;99.90;;;;;;5008154;28;19926;-71
2021/12/30 06:04:28;;;;;;;;;;;14.10;99.90;;;;;;5010557;28;19926;-71
2021/12/30 06:06:55;;;;;;;;;;;14.10;99.90;;;;;;5007978;28;19932;-71
2021/12/30 06:09:22;;;;;;;;;;;14.10;99.90;;;;;;5009979;28;19931;-71
2021/12/30 06:11:49;;;;;;;;;;;14.10;99.90;;;;;;5006719;28;19932;-71
2021/12/30 06:14:15;;;;;;;;;;;14.10;99.90;;;;;;5010270;28;20270;-71
2021/12/30 06:16:42;;;;;;;;;;;14.10;99.90;;;;;;5009366;28;19925;-70
2021/12/30 06:19:09;;;;;;;;;;;14.10;99.90;;;;;;5011844;28;19925;-70
2021/12/30 06:21:37;;;;;;;;;;;14.10;99.90;;;;;;5008206;28;20068;-71
2021/12/30 06:24:04;;;;;;;;;;;14.10;99.90;;;;;;5009620;28;19925;-72
2021/12/30 06:26:30;;;;;;;;;;;14.10;99.90;;;;;;5005504;28;19926;-71
2021/12/30 06:28:57;;;;;;;;;;;14.10;99.90;;;;;;5009883;28;19979;-69
2021/12/30 06:31:24;;;;;;;;;;;14.10;99.90;;;;;;5007392;28;20308;-70
2021/12/30 06:33:50;;;;;;;;;;;14.10;99.90;;;;;;5009039;28;19933;-70
2021/12/30 06:36:21;;;;;;;;;;;14.20;99.90;;;;;;5008320;28;20036;-70
2021/12/30 06:38:49;;;;;;;;;;;14.20;99.90;;;;;;5009555;28;19937;-70
2021/12/30 06:41:16;;;;;;;;;;;14.20;99.90;;;;;;5005834;28;19930;-70
2021/12/30 06:43:43;;;;;;;;;;;14.20;99.90;;;;;;5008287;28;19926;-71
2021/12/30 06:46:10;;;;;;;;;;;14.20;99.90;;;;;;5004539;28;19926;-71
2021/12/30 06:48:37;;;;;;;;;;;14.20;99.90;;;;;;5009536;28;20267;-71
2021/12/30 06:51:05;;;;;;;;;;;14.20;99.90;;;;;;5002208;28;19932;-71
2021/12/30 06:53:34;;;;;;;;;;;14.30;99.90;;;;;;5008546;28;19980;-70
2021/12/30 06:56:02;;;;;;;;;;;14.30;99.90;;;;;;5003009;28;19926;-70
2021/12/30 06:58:29;;;;;;;;;;;14.20;99.90;;;;;;5007845;28;20300;-71
2021/12/30 07:00:57;;;;;;;;;;;14.20;99.90;;;;;;5006670;28;20019;-71
2021/12/30 07:03:24;;;;;;;;;;;14.20;99.90;;;;;;5004102;28;19926;-71
2021/12/30 07:05:54;;;;;;;;;;;14.20;99.90;;;;;;5008262;28;19933;-70
2021/12/30 07:08:21;;;;;;;;;;;14.20;99.90;;;;;;5004701;28;19955;-70
2021/12/30 07:10:48;;;;;;;;;;;14.10;99.90;;;;;;5010269;28;20370;-71
2021/12/30 07:13:16;;;;;;;;;;;14.10;99.90;;;;;;5005521;28;20303;-71
2021/12/30 07:15:43;;;;;;;;;;;14.00;99.90;;;;;;5010707;28;20019;-70
2021/12/30 07:18:09;;;;;;;;;;;14.00;99.90;;;;;;5007598;28;19932;-71
2021/12/30 07:20:36;;;;;;;;;;;14.10;99.90;;;;;;5010346;28;19940;-72
2021/12/30 07:23:03;;;;;;;;;;;14.10;99.90;;;;;;5010641;28;19926;-71
2021/12/30 07:25:30;;;;;;;;;;;14.10;99.90;;;;;;5012639;28;19926;-74
2021/12/30 07:27:56;;;;;;;;;;;14.10;99.90;;;;;;5008941;28;19957;-72
2021/12/30 07:30:26;;;;;;;;;;;14.10;99.90;;;;;;5011360;28;19956;-72
2021/12/30 07:32:53;;;;;;;;;;;14.10;99.90;;;;;;5001907;28;19925;-71
2021/12/30 07:35:21;;;;;;;;;;;14.10;99.90;;;;;;5001600;28;20475;-71
2021/12/30 07:37:49;;;;;;;;;;;14.20;99.90;;;;;;5011065;28;19932;-71
2021/12/30 07:40:16;;;;;;;;;;;14.10;99.90;;;;;;5010449;28;20410;-72
2021/12/30 07:42:43;;;;;;;;;;;14.20;99.90;;;;;;5004776;28;19925;-72
2021/12/30 07:45:10;;;;;;;;;;;14.20;99.90;;;;;;5011226;28;20410;-72
2021/12/30 07:47:38;;;;;;;;;;;14.20;99.90;;;;;;5007056;28;19929;-72
2021/12/30 07:50:08;;;;;;;;;;;14.20;99.90;;;;;;5010514;28;19932;-73
2021/12/30 07:52:36;;;;;;;;;;;14.20;99.90;;;;;;5005225;28;19926;-69
2021/12/30 07:55:03;;;;;;;;;;;14.20;99.90;;;;;;5011087;28;19936;-69
2021/12/30 07:57:30;;;;;;;;;;;14.20;99.90;;;;;;5006375;28;19960;-69
2021/12/30 07:59:57;;;;;;;;;;;14.10;99.90;;;;;;5009419;28;19934;-73
2021/12/30 08:02:23;;;;;;;;;;;14.10;99.90;;;;;;5008049;28;20016;-68
2021/12/30 08:04:51;;;;;;;;;;;14.20;99.90;;;;;;5011526;28;20008;-68
2021/12/30 08:07:21;;;;;;;;;;;14.10;99.90;;;;;;5010810;28;20600;-69
2021/12/30 08:09:48;;;;;;;;;;;14.20;99.90;;;;;;5012302;28;19934;-69
2021/12/30 08:12:17;;;;;;;;;;;14.10;99.90;;;;;;5008200;28;19931;-68
2021/12/30 08:14:43;;;;;;;;;;;14.20;99.90;;;;;;5008210;28;19940;-69
2021/12/30 08:17:10;;;;;;;;;;;14.20;99.90;;;;;;5004718;28;19925;-68
2021/12/30 08:19:37;;;;;;;;;;;14.20;99.90;;;;;;5006941;28;19925;-69
2021/12/30 08:22:05;;;;;;;;;;;14.20;99.90;;;;;;5008963;28;19925;-69
2021/12/30 08:24:32;;;;;;;;;;;14.20;99.90;;;;;;5011313;28;19925;-70
2021/12/30 08:26:59;;;;;;;;;;;14.20;99.90;;;;;;5008139;28;19925;-69
2021/12/30 08:29:26;;;;;;;;;;;14.20;99.90;;;;;;5008237;28;19937;-69
2021/12/30 08:31:53;;;;;;;;;;;14.20;99.90;;;;;;5004547;28;20017;-68
2021/12/30 08:34:21;;;;;;;;;;;14.30;99.90;;;;;;5008747;28;19932;-69
2021/12/30 08:36:47;;;;;;;;;;;14.30;99.90;;;;;;5009961;28;20335;-69
2021/12/30 08:39:15;;;;;;;;;;;14.30;99.90;;;;;;5005575;28;19925;-69
2021/12/30 08:41:42;;;;;;;;;;;14.30;99.90;;;;;;5004297;28;20512;-69
2021/12/30 08:44:09;;;;;;;;;;;14.30;99.90;;;;;;5009828;28;19948;-69
2021/12/30 08:46:35;;;;;;;;;;;14.40;99.90;;;;;;5001991;28;19932;-69
2021/12/30 08:49:02;;;;;;;;;;;14.40;99.90;;;;;;5009481;28;20023;-68
2021/12/30 08:51:29;;;;;;;;;;;14.40;99.90;;;;;;5004253;28;19973;-67
2021/12/30 08:53:56;;;;;;;;;;;14.40;99.90;;;;;;5000699;28;19934;-67
2021/12/30 08:56:24;;;;;;;;;;;14.50;99.90;;;;;;4999059;28;19933;-68
2021/12/30 08:58:50;;;;;;;;;;;14.50;99.90;;;;;;5000241;28;19930;-69
2021/12/30 09:01:17;;;;;;;;;;;14.50;99.90;;;;;;4996956;28;20309;-69
2021/12/30 09:03:44;;;;;;;;;;;14.50;99.90;;;;;;5004288;28;20035;-68
2021/12/30 09:06:10;;;;;;;;;;;14.40;99.90;;;;;;5001885;28;19932;-68
2021/12/30 09:08:39;;;;;;;;;;;14.40;99.90;;;;;;5004677;28;19929;-69
2021/12/30 09:11:06;;;;;;;;;;;14.40;99.90;;;;;;5006039;28;19980;-69
2021/12/30 09:13:34;;;;;;;;;;;14.40;99.90;;;;;;5000675;28;19955;-69
2021/12/30 09:16:01;;;;;;;;;;;14.50;99.90;;;;;;5001403;28;19957;-69
2021/12/30 09:18:28;;;;;;;;;;;14.50;99.90;;;;;;4997826;28;20141;-69
2021/12/30 09:20:55;;;;;;;;;;;14.50;99.90;;;;;;5004713;28;19931;-69
2021/12/30 09:23:21;;;;;;;;;;;14.60;99.90;;;;;;4999709;28;21828;-70
2021/12/30 09:25:56;;;;;;;;;;;14.60;99.90;;;;;;5000991;28;19929;-71
2021/12/30 09:28:24;;;;;;;;;;;14.50;99.90;;;;;;5003454;28;19934;-69
2021/12/30 09:30:52;;;;;;;;;;;14.50;99.90;;;;;;4997220;28;19925;-68
2021/12/30 09:33:19;;;;;;;;;;;14.50;99.90;;;;;;5004278;28;19933;-68
2021/12/30 09:35:47;;;;;;;;;;;14.60;99.90;;;;;;4993156;28;19937;-69
2021/12/30 09:38:14;;;;;;;;;;;14.60;99.90;;;;;;5003605;28;19949;-70
2021/12/30 09:40:40;;;;;;;;;;;14.60;99.90;;;;;;4999633;28;19970;-69
2021/12/30 09:43:09;;;;;;;;;;;14.60;99.90;;;;;;4999640;28;19931;-68
2021/12/30 09:45:37;;;;;;;;;;;14.60;99.90;;;;;;4997566;28;19930;-69
2021/12/30 09:48:07;;;;;;;;;;;14.60;99.90;;;;;;5002780;28;19926;-69
2021/12/30 09:50:35;;;;;;;;;;;14.60;99.90;;;;;;5004011;28;20423;-68
2021/12/30 09:53:02;;;;;;;;;;;14.60;99.90;;;;;;5003990;28;20283;-68
2021/12/30 09:55:29;;;;;;;;;;;14.60;99.90;;;;;;5001182;28;20346;-68
2021/12/30 09:57:56;;;;;;;;;;;14.50;99.90;;;;;;4998719;28;20281;-68
2021/12/30 10:00:24;;;;;;;;;;;14.60;99.90;;;;;;4997307;28;19999;-68
2021/12/30 10:02:51;;;;;;;;;;;14.70;99.90;;;;;;5000678;28;19933;-69
2021/12/30 10:05:29;;;;;;;;;;;14.70;99.90;;;;;;4995076;28;19929;-69
2021/12/30 10:08:07;;;;;;;;;;;14.70;99.90;;;;;;4993758;28;19933;-69
2021/12/30 10:10:35;;;;;;;;;;;14.70;99.90;;;;;;4992326;28;20012;-69
2021/12/30 10:13:02;;;;;;;;;;;14.80;99.90;;;;;;4995390;28;20507;-69
2021/12/30 10:15:40;;;;;;;;;;;14.80;99.90;;;;;;4997984;28;19934;-69
2021/12/30 10:18:07;;;;;;;;;;;14.80;99.90;;;;;;5002788;28;19932;-68
2021/12/30 10:20:37;;;;;;;;;;;14.80;99.90;;;;;;5004759;28;19929;-67
2021/12/30 10:23:09;;;;;;;;;;;14.90;99.90;;;;;;5004257;28;19929;-68
2021/12/30 10:25:37;;;;;;;;;;;14.90;99.90;;;;;;5000067;28;20880;-66
2021/12/30 10:28:18;;;;;;;;;;;14.90;99.90;;;;;;4998640;28;19933;-68
2021/12/30 10:30:45;;;;;;;;;;;14.90;99.90;;;;;;5000520;28;19926;-68
2021/12/30 10:33:13;;;;;;;;;;;14.90;99.90;;;;;;4997963;28;19926;-68
2021/12/30 10:35:41;;;;;;;;;;;14.90;99.90;;;;;;4997093;28;19931;-67
2021/12/30 10:38:11;;;;;;;;;;;14.80;99.90;;;;;;4992203;28;19925;-66
2021/12/30 10:40:39;;;;;;;;;;;14.80;99.90;;;;;;5000791;28;19933;-68
2021/12/30 10:43:19;;;;;;;;;;;14.90;99.90;;;;;;5002641;28;19933;-69
2021/12/30 10:46:00;;;;;;;;;;;14.90;99.90;;;;;;4996503;28;23363;-68
2021/12/30 10:48:27;;;;;;;;;;;14.90;99.90;;;;;;4990359;28;20012;-67
2021/12/30 10:51:08;;;;;;;;;;;15.00;99.90;;;;;;5000490;28;19929;-73
2021/12/30 10:53:36;;;;;;;;;;;15.10;99.90;;;;;;5002371;28;19926;-68
2021/12/30 10:56:17;;;;;;;;;;;15.10;99.90;;;;;;5002886;28;19933;-69
2021/12/30 10:58:44;;;;;;;;;;;15.20;99.90;;;;;;5005445;28;20443;-70
2021/12/30 11:01:14;;;;;;;;;;;15.40;99.90;;;;;;5004437;28;20012;-68
2021/12/30 11:03:42;;;;;;;;;;;15.40;99.90;;;;;;5005807;28;19947;-69
2021/12/30 11:06:17;;;;;;;;;;;15.30;99.90;;;;;;5004467;28;19940;-69
2021/12/30 11:08:43;;;;;;;;;;;15.20;99.90;;;;;;5005288;28;19932;-68
2021/12/30 11:11:25;;;;;;;;;;;15.20;99.90;;;;;;5004956;28;20079;-70
2021/12/30 11:13:59;;;;;;;;;;;15.20;99.90;;;;;;5005721;28;19936;-69
2021/12/30 11:16:26;;;;;;;;;;;15.10;99.90;;;;;;4998954;28;20020;-69
2021/12/30 11:18:54;;;;;;;;;;;15.20;99.90;;;;;;5005998;28;20307;-69
2021/12/30 11:21:42;;;;;;;;;;;15.20;99.90;;;;;;5003456;28;21638;-69
2021/12/30 11:24:09;;;;;;;;;;;15.10;99.90;;;;;;5002213;28;19961;-69
2021/12/30 11:26:36;;;;;;;;;;;15.00;99.90;;;;;;4992365;28;20412;-70
2021/12/30 11:29:04;;;;;;;;;;;14.90;99.90;;;;;;4991364;28;19933;-68
2021/12/30 11:31:32;;;;;;;;;;;14.90;99.90;;;;;;4992879;28;20035;-70
2021/12/30 11:33:58;;;;;;;;;;;14.80;99.90;;;;;;4994434;28;19963;-69
2021/12/30 11:36:28;;;;;;;;;;;14.70;99.90;;;;;;4993285;28;20388;-70
2021/12/30 11:38:57;;;;;;;;;;;14.70;99.90;;;;;;4992498;28;19993;-70
2021/12/30 11:41:26;;;;;;;;;;;14.70;99.90;;;;;;5001306;28;20235;-71
2021/12/30 11:43:52;;;;;;;;;;;14.80;99.90;;;;;;5008844;28;19926;-70
2021/12/30 11:46:38;;;;;;;;;;;14.70;99.90;;;;;;4996837;28;19934;-71
2021/12/30 11:49:05;;;;;;;;;;;14.70;99.90;;;;;;4999164;28;20016;-71
2021/12/30 11:51:40;;;;;;;;;;;14.70;99.90;;;;;;5008559;28;19929;-70
2021/12/30 11:54:22;;;;;;;;;;;14.70;99.90;;;;;;5005067;28;19934;-70
2021/12/30 11:57:22;;;;;;;;;;;14.70;99.90;;;;;;5004896;28;19979;-70
2021/12/30 11:59:48;;;;;;;;;;;14.70;99.90;;;;;;5003428;28;20020;-71
2021/12/30 12:02:42;;;;;;;;;;;14.70;99.90;;;;;;5005302;28;19940;-71
2021/12/30 12:05:27;;;;;;;;;;;14.80;99.90;;;;;;4978574;28;19932;-72
2021/12/30 12:08:02;;;;;;;;;;;14.90;99.90;;;;;;5006042;28;20444;-71
2021/12/30 12:10:28;;;;;;;;;;;15.10;99.90;;;;;;5009305;28;19925;-68
2021/12/30 12:12:57;;;;;;;;;;;15.20;99.90;;;;;;5007329;28;19925;-69
2021/12/30 12:15:24;;;;;;;;;;;15.20;99.90;;;;;;5008497;28;19926;-70
2021/12/30 12:17:50;;;;;;;;;;;15.10;99.90;;;;;;5005295;28;20092;-69
2021/12/30 12:20:21;;;;;;;;;;;15.10;99.90;;;;;;5007682;28;19925;-70
2021/12/30 12:22:49;;;;;;;;;;;15.10;99.90;;;;;;5007721;28;20003;-68
2021/12/30 12:25:18;;;;;;;;;;;15.10;99.90;;;;;;5006825;28;20339;-70
2021/12/30 12:27:46;;;;;;;;;;;15.10;99.90;;;;;;5003076;28;19930;-67
2021/12/30 12:30:31;;;;;;;;;;;15.10;99.90;;;;;;5005405;28;19930;-67
2021/12/30 12:33:00;;;;;;;;;;;15.10;99.90;;;;;;5007045;28;19930;-70
2021/12/30 12:35:32;;;;;;;;;;;15.10;99.90;;;;;;5007097;28;19936;-70
2021/12/30 12:38:00;;;;;;;;;;;15.10;99.90;;;;;;5006587;28;19956;-71
2021/12/30 12:40:37;;;;;;;;;;;15.10;99.90;;;;;;5004917;28;20414;-72
2021/12/30 12:43:06;;;;;;;;;;;15.10;99.90;;;;;;5006607;28;19925;-72
2021/12/30 12:45:33;;;;;;;;;;;15.10;99.90;;;;;;5009764;28;19925;-71
2021/12/30 12:48:20;;;;;;;;;;;15.10;99.90;;;;;;5007731;28;20011;-72
2021/12/30 12:50:49;;;;;;;;;;;15.10;99.90;;;;;;5003212;28;19932;-70
2021/12/30 12:53:38;;;;;;;;;;;15.00;99.90;;;;;;5009154;28;19932;-69
2021/12/30 12:56:05;;;;;;;;;;;15.00;99.90;;;;;;5004810;28;19926;-70
2021/12/30 12:58:36;;;;;;;;;;;15.00;99.90;;;;;;5010861;28;20737;-70
2021/12/30 13:01:04;;;;;;;;;;;15.00;99.90;;;;;;5001821;28;19926;-69
2021/12/30 13:03:31;;;;;;;;;;;14.90;99.90;;;;;;5008238;28;20337;-71
2021/12/30 13:06:01;;;;;;;;;;;15.00;99.90;;;;;;5010435;28;19932;-70
2021/12/30 13:08:28;;;;;;;;;;;14.90;99.90;;;;;;5009776;28;20449;-70
2021/12/30 13:10:55;;;;;;;;;;;14.90;99.90;;;;;;5010086;28;19926;-69
2021/12/30 13:13:28;;;;;;;;;;;14.90;99.90;;;;;;5007804;28;19929;-69
2021/12/30 13:15:55;;;;;;;;;;;14.90;99.90;;;;;;5006911;28;19925;-69
2021/12/30 13:18:21;;;;;;;;;;;14.90;99.90;;;;;;5005276;28;19925;-70
2021/12/30 13:20:48;;;;;;;;;;;14.90;99.90;;;;;;5009986;28;20016;-70
2021/12/30 13:23:26;;;;;;;;;;;14.80;99.90;;;;;;5009618;28;20273;-71
2021/12/30 13:26:00;;;;;;;;;;;14.80;99.90;;;;;;5010433;28;19929;-71
2021/12/30 13:28:27;;;;;;;;;;;14.70;99.90;;;;;;5006545;28;20059;-72
2021/12/30 13:31:04;;;;;;;;;;;14.70;99.90;;;;;;5006877;28;19948;-70
2021/12/30 13:33:33;;;;;;;;;;;14.60;99.90;;;;;;5008614;28;19936;-71
2021/12/30 13:35:59;;;;;;;;;;;14.60;99.90;;;;;;5011206;28;19926;-70
2021/12/30 13:38:27;;;;;;;;;;;14.50;99.90;;;;;;5008832;28;20292;-70
2021/12/30 13:40:54;;;;;;;;;;;14.50;99.90;;;;;;5010252;28;20320;-71
2021/12/30 13:43:23;;;;;;;;;;;14.40;99.90;;;;;;5008811;28;19936;-70
2021/12/30 13:45:52;;;;;;;;;;;14.40;99.90;;;;;;5005320;28;20249;-69
2021/12/30 13:48:20;;;;;;;;;;;14.40;99.90;;;;;;5006945;28;19932;-70
2021/12/30 13:50:47;;;;;;;;;;;14.40;99.90;;;;;;5009785;28;19955;-70
2021/12/30 13:53:14;;;;;;;;;;;14.40;99.90;;;;;;5006791;28;19932;-70
2021/12/30 13:55:47;;;;;;;;;;;14.40;99.90;;;;;;5010155;28;20007;-70
2021/12/30 13:58:16;;;;;;;;;;;14.40;99.90;;;;;;5008270;28;19932;-70
2021/12/30 14:00:45;;;;;;;;;;;14.30;99.90;;;;;;5009379;28;19926;-70
2021/12/30 14:03:13;;;;;;;;;;;14.30;99.90;;;;;;5007707;28;19929;-70
2021/12/30 14:05:40;;;;;;;;;;;14.30;99.90;;;;;;5009221;28;20007;-70
2021/12/30 14:08:07;;;;;;;;;;;14.30;99.90;;;;;;5008421;28;19933;-69
2021/12/30 14:10:46;;;;;;;;;;;14.30;99.90;;;;;;5008953;28;20403;-71
2021/12/30 14:13:13;;;;;;;;;;;14.30;99.90;;;;;;5008634;28;19947;-68
2021/12/30 14:15:39;;;;;;;;;;;14.30;99.90;;;;;;5006406;28;19926;-68
2021/12/30 14:18:08;;;;;;;;;;;14.40;99.90;;;;;;5000775;28;19933;-70
2021/12/30 14:20:35;;;;;;;;;;;14.30;99.90;;;;;;5001757;28;20135;-70
2021/12/30 14:23:01;;;;;;;;;;;14.30;99.90;;;;;;5005994;28;19933;-70